createdAt,value
2018-02-22T00:00:38.208Z,1013.72
2018-02-22T00:01:38.174Z,1013.7
2018-02-22T00:02:38.139Z,1013.72
2018-02-22T00:03:38.105Z,1013.69
2018-02-22T00:04:38.070Z,1013.71
2018-02-22T00:05:38.036Z,1013.73
2018-02-22T00:06:38.000Z,1013.68
2018-02-22T00:07:37.967Z,1013.71
2018-02-22T00:08:37.933Z,1013.68
2018-02-22T00:09:37.899Z,1013.69
2018-02-22T00:10:37.863Z,1013.66
2018-02-22T00:11:37.829Z,1013.71
2018-02-22T00:12:37.795Z,1013.64
2018-02-22T00:13:37.904Z,1013.68
2018-02-22T00:14:37.727Z,1013.64
2018-02-22T00:15:37.694Z,1013.66
2018-02-22T00:16:37.756Z,1013.67
2018-02-22T00:17:37.621Z,1013.65
2018-02-22T00:18:37.590Z,1013.68
2018-02-22T00:19:37.553Z,1013.66
2018-02-22T00:20:37.516Z,1013.68
2018-02-22T00:21:37.483Z,1013.65
2018-02-22T00:22:37.449Z,1013.66
2018-02-22T00:23:37.415Z,1013.68
2018-02-22T00:24:37.380Z,1013.65
2018-02-22T00:25:37.345Z,1013.66
2018-02-22T00:26:37.312Z,1013.68
2018-02-22T00:27:37.275Z,1013.64
2018-02-22T00:28:37.240Z,1013.64
2018-02-22T00:29:37.207Z,1013.6
2018-02-22T00:30:37.174Z,1013.64
2018-02-22T00:31:37.288Z,1013.6
2018-02-22T00:32:37.104Z,1013.55
2018-02-22T00:33:37.069Z,1013.56
2018-02-22T00:34:37.033Z,1013.55
2018-02-22T00:35:36.999Z,1013.53
2018-02-22T00:36:36.965Z,1013.54
2018-02-22T00:37:36.933Z,1013.5
2018-02-22T00:38:36.896Z,1013.5
2018-02-22T00:39:36.860Z,1013.52
2018-02-22T00:40:36.825Z,1013.52
2018-02-22T00:41:36.791Z,1013.49
2018-02-22T00:42:36.756Z,1013.49
2018-02-22T00:43:36.721Z,1013.5
2018-02-22T00:44:36.687Z,1013.53
2018-02-22T00:45:36.651Z,1013.5
2018-02-22T00:46:36.616Z,1013.52
2018-02-22T00:47:36.582Z,1013.52
2018-02-22T00:48:36.546Z,1013.54
2018-02-22T00:49:36.515Z,1013.51
2018-02-22T00:50:36.477Z,1013.52
2018-02-22T00:51:36.444Z,1013.51
2018-02-22T00:52:36.408Z,1013.54
2018-02-22T00:53:36.372Z,1013.54
2018-02-22T00:54:36.339Z,1013.55
2018-02-22T00:55:36.304Z,1013.51
2018-02-22T00:56:36.268Z,1013.51
2018-02-22T00:57:36.233Z,1013.51
2018-02-22T00:58:36.199Z,1013.46
2018-02-22T00:59:36.165Z,1013.49
2018-02-22T01:00:36.129Z,1013.5
2018-02-22T01:01:36.094Z,1013.45
2018-02-22T01:02:36.060Z,1013.49
2018-02-22T01:03:36.026Z,1013.49
2018-02-22T01:04:35.989Z,1013.49
2018-02-22T01:05:35.955Z,1013.49
2018-02-22T01:06:35.920Z,1013.48
2018-02-22T01:07:35.886Z,1013.49
2018-02-22T01:08:35.853Z,1013.47
2018-02-22T01:09:35.815Z,1013.5
2018-02-22T01:10:35.781Z,1013.49
2018-02-22T01:11:35.746Z,1013.47
2018-02-22T01:12:35.712Z,1013.52
2018-02-22T01:13:35.677Z,1013.47
2018-02-22T01:14:35.642Z,1013.47
2018-02-22T01:15:35.606Z,1013.47
2018-02-22T01:16:35.573Z,1013.47
2018-02-22T01:17:35.537Z,1013.46
2018-02-22T01:18:35.500Z,1013.44
2018-02-22T01:19:35.465Z,1013.47
2018-02-22T01:20:35.435Z,1013.52
2018-02-22T01:21:35.398Z,1013.5
2018-02-22T01:22:35.362Z,1013.48
2018-02-22T01:23:35.327Z,1013.51
2018-02-22T01:24:35.292Z,1013.46
2018-02-22T01:25:35.257Z,1013.47
2018-02-22T01:26:35.222Z,1013.5
2018-02-22T01:27:35.187Z,1013.47
2018-02-22T01:28:35.153Z,1013.5
2018-02-22T01:29:35.119Z,1013.47
2018-02-22T01:30:35.082Z,1013.44
2018-02-22T01:31:35.048Z,1013.47
2018-02-22T01:32:35.013Z,1013.46
2018-02-22T01:33:34.990Z,1013.43
2018-02-22T01:34:34.943Z,1013.46
2018-02-22T01:35:34.910Z,1013.45
2018-02-22T01:36:34.873Z,1013.43
2018-02-22T01:37:34.838Z,1013.43
2018-02-22T01:38:34.803Z,1013.45
2018-02-22T01:39:34.770Z,1013.46
2018-02-22T01:40:34.735Z,1013.44
2018-02-22T01:41:34.698Z,1013.45
2018-02-22T01:42:34.663Z,1013.45
2018-02-22T01:43:34.628Z,1013.42
2018-02-22T01:44:34.592Z,1013.45
2018-02-22T01:45:34.558Z,1013.45
2018-02-22T01:46:34.523Z,1013.44
2018-02-22T01:47:34.489Z,1013.41
2018-02-22T01:48:34.453Z,1013.39
2018-02-22T01:49:34.417Z,1013.41
2018-02-22T01:50:34.383Z,1013.43
2018-02-22T01:51:34.349Z,1013.39
2018-02-22T01:52:34.315Z,1013.42
2018-02-22T01:53:34.277Z,1013.44
2018-02-22T01:54:34.243Z,1013.44
2018-02-22T01:55:34.206Z,1013.43
2018-02-22T01:56:34.173Z,1013.38
2018-02-22T01:57:34.137Z,1013.38
2018-02-22T01:58:34.105Z,1013.39
2018-02-22T01:59:34.068Z,1013.37
2018-02-22T02:00:34.033Z,1013.32
2018-02-22T02:01:33.998Z,1013.36
2018-02-22T02:02:33.962Z,1013.33
2018-02-22T02:03:33.927Z,1013.35
2018-02-22T02:04:33.892Z,1013.36
2018-02-22T02:05:33.856Z,1013.32
2018-02-22T02:06:33.822Z,1013.34
2018-02-22T02:07:33.787Z,1013.32
2018-02-22T02:08:33.753Z,1013.32
2018-02-22T02:09:33.717Z,1013.33
2018-02-22T02:10:33.682Z,1013.31
2018-02-22T02:11:33.704Z,1013.29
2018-02-22T02:12:33.612Z,1013.28
2018-02-22T02:13:33.577Z,1013.3
2018-02-22T02:14:33.541Z,1013.29
2018-02-22T02:15:33.506Z,1013.3
2018-02-22T02:16:33.472Z,1013.31
2018-02-22T02:17:33.437Z,1013.28
2018-02-22T02:18:33.404Z,1013.27
2018-02-22T02:19:33.414Z,1013.31
2018-02-22T02:20:33.330Z,1013.26
2018-02-22T02:21:33.295Z,1013.29
2018-02-22T02:22:33.260Z,1013.27
2018-02-22T02:23:33.226Z,1013.29
2018-02-22T02:24:33.189Z,1013.23
2018-02-22T02:25:33.154Z,1013.27
2018-02-22T02:26:33.118Z,1013.25
2018-02-22T02:27:33.084Z,1013.25
2018-02-22T02:28:33.052Z,1013.28
2018-02-22T02:29:33.013Z,1013.25
2018-02-22T02:30:32.982Z,1013.26
2018-02-22T02:31:32.949Z,1013.23
2018-02-22T02:32:32.909Z,1013.22
2018-02-22T02:33:32.873Z,1013.24
2018-02-22T02:34:32.839Z,1013.22
2018-02-22T02:35:32.802Z,1013.22
2018-02-22T02:36:32.767Z,1013.22
2018-02-22T02:37:32.734Z,1013.22
2018-02-22T02:38:32.698Z,1013.2
2018-02-22T02:39:32.662Z,1013.21
2018-02-22T02:40:32.627Z,1013.27
2018-02-22T02:41:32.592Z,1013.23
2018-02-22T02:42:32.557Z,1013.25
2018-02-22T02:43:32.520Z,1013.2
2018-02-22T02:44:32.485Z,1013.23
2018-02-22T02:45:32.451Z,1013.22
2018-02-22T02:46:32.414Z,1013.21
2018-02-22T02:47:32.379Z,1013.19
2018-02-22T02:48:32.344Z,1013.15
2018-02-22T02:49:32.310Z,1013.14
2018-02-22T02:50:32.273Z,1013.15
2018-02-22T02:51:32.237Z,1013.18
2018-02-22T02:52:32.204Z,1013.12
2018-02-22T02:53:32.170Z,1013.17
2018-02-22T02:54:32.132Z,1013.13
2018-02-22T02:55:32.098Z,1013.15
2018-02-22T02:56:32.062Z,1013.13
2018-02-22T02:57:32.025Z,1013.12
2018-02-22T02:58:31.991Z,1013.12
2018-02-22T02:59:31.956Z,1013.14
2018-02-22T03:00:31.921Z,1013.13
2018-02-22T03:01:31.886Z,1013.12
2018-02-22T03:02:31.850Z,1013.12
2018-02-22T03:03:31.818Z,1013.13
2018-02-22T03:04:31.779Z,1013.12
2018-02-22T03:05:31.744Z,1013.09
2018-02-22T03:06:31.707Z,1013.12
2018-02-22T03:07:31.673Z,1013.12
2018-02-22T03:08:31.637Z,1013.13
2018-02-22T03:09:31.601Z,1013.14
2018-02-22T03:10:31.567Z,1013.16
2018-02-22T03:11:31.532Z,1013.16
2018-02-22T03:12:31.495Z,1013.14
2018-02-22T03:13:31.462Z,1013.12
2018-02-22T03:14:31.424Z,1013.18
2018-02-22T03:15:31.390Z,1013.16
2018-02-22T03:16:31.355Z,1013.18
2018-02-22T03:17:31.320Z,1013.17
2018-02-22T03:18:31.284Z,1013.18
2018-02-22T03:19:31.248Z,1013.19
2018-02-22T03:20:31.213Z,1013.15
2018-02-22T03:21:31.178Z,1013.23
2018-02-22T03:22:31.143Z,1013.19
2018-02-22T03:23:31.107Z,1013.21
2018-02-22T03:24:31.072Z,1013.19
2018-02-22T03:25:31.039Z,1013.18
2018-02-22T03:26:31.001Z,1013.18
2018-02-22T03:27:30.966Z,1013.17
2018-02-22T03:28:30.930Z,1013.19
2018-02-22T03:29:30.896Z,1013.19
2018-02-22T03:30:30.860Z,1013.18
2018-02-22T03:31:30.830Z,1013.2
2018-02-22T03:32:30.789Z,1013.2
2018-02-22T03:33:30.755Z,1013.16
2018-02-22T03:34:30.719Z,1013.17
2018-02-22T03:35:30.683Z,1013.17
2018-02-22T03:36:30.652Z,1013.16
2018-02-22T03:37:30.613Z,1013.13
2018-02-22T03:38:30.578Z,1013.14
2018-02-22T03:39:30.542Z,1013.11
2018-02-22T03:40:30.508Z,1013.12
2018-02-22T03:41:30.471Z,1013.13
2018-02-22T03:42:30.435Z,1013.12
2018-02-22T03:43:30.401Z,1013.11
2018-02-22T03:44:30.366Z,1013.12
2018-02-22T03:45:30.330Z,1013.14
2018-02-22T03:46:30.294Z,1013.12
2018-02-22T03:47:30.260Z,1013.12
2018-02-22T03:48:30.222Z,1013.1
2018-02-22T03:49:30.190Z,1013.08
2018-02-22T03:50:30.152Z,1013.09
2018-02-22T03:51:30.118Z,1013.11
2018-02-22T03:52:30.083Z,1013.11
2018-02-22T03:53:30.047Z,1013.09
2018-02-22T03:54:30.048Z,1013.12
2018-02-22T03:55:29.983Z,1013.16
2018-02-22T03:56:29.940Z,1013.16
2018-02-22T03:57:29.904Z,1013.13
2018-02-22T03:58:29.869Z,1013.17
2018-02-22T03:59:29.834Z,1013.17
2018-02-22T04:00:29.805Z,1013.17
2018-02-22T04:01:29.768Z,1013.19
2018-02-22T04:02:29.728Z,1013.19
2018-02-22T04:03:29.691Z,1013.23
2018-02-22T04:04:29.657Z,1013.18
2018-02-22T04:05:29.624Z,1013.23
2018-02-22T04:06:29.585Z,1013.24
2018-02-22T04:07:29.550Z,1013.26
2018-02-22T04:08:29.515Z,1013.22
2018-02-22T04:09:29.480Z,1013.27
2018-02-22T04:10:29.443Z,1013.27
2018-02-22T04:11:29.408Z,1013.28
2018-02-22T04:12:29.374Z,1013.27
2018-02-22T04:13:29.338Z,1013.29
2018-02-22T04:14:29.303Z,1013.28
2018-02-22T04:15:29.266Z,1013.28
2018-02-22T04:16:29.230Z,1013.29
2018-02-22T04:17:29.194Z,1013.29
2018-02-22T04:18:29.159Z,1013.3
2018-02-22T04:19:29.124Z,1013.27
2018-02-22T04:20:29.090Z,1013.3
2018-02-22T04:21:29.051Z,1013.3
2018-02-22T04:22:29.017Z,1013.3
2018-02-22T04:23:29.012Z,1013.32
2018-02-22T04:24:28.946Z,1013.31
2018-02-22T04:25:28.910Z,1013.32
2018-02-22T04:26:28.878Z,1013.37
2018-02-22T04:27:28.840Z,1013.35
2018-02-22T04:28:28.803Z,1013.37
2018-02-22T04:29:28.767Z,1013.39
2018-02-22T04:30:28.732Z,1013.39
2018-02-22T04:31:28.697Z,1013.4
2018-02-22T04:32:28.662Z,1013.37
2018-02-22T04:33:28.625Z,1013.39
2018-02-22T04:34:28.590Z,1013.41
2018-02-22T04:35:28.554Z,1013.38
2018-02-22T04:36:28.519Z,1013.37
2018-02-22T04:37:28.485Z,1013.38
2018-02-22T04:38:28.448Z,1013.39
2018-02-22T04:39:28.412Z,1013.4
2018-02-22T04:40:28.376Z,1013.42
2018-02-22T04:41:28.341Z,1013.34
2018-02-22T04:42:28.304Z,1013.39
2018-02-22T04:43:28.273Z,1013.38
2018-02-22T04:44:28.234Z,1013.36
2018-02-22T04:45:28.199Z,1013.39
2018-02-22T04:46:28.163Z,1013.38
2018-02-22T04:47:28.127Z,1013.42
2018-02-22T04:48:28.092Z,1013.4
2018-02-22T04:49:28.056Z,1013.4
2018-02-22T04:50:28.057Z,1013.44
2018-02-22T04:51:27.984Z,1013.41
2018-02-22T04:52:27.949Z,1013.41
2018-02-22T04:53:27.914Z,1013.38
2018-02-22T04:54:27.877Z,1013.44
2018-02-22T04:55:27.842Z,1013.39
2018-02-22T04:56:27.807Z,1013.37
2018-02-22T04:57:27.771Z,1013.38
2018-02-22T04:58:27.734Z,1013.41
2018-02-22T04:59:27.698Z,1013.39
2018-02-22T05:00:27.663Z,1013.41
2018-02-22T05:01:27.627Z,1013.41
2018-02-22T05:02:27.592Z,1013.4
2018-02-22T05:03:27.556Z,1013.41
2018-02-22T05:04:27.521Z,1013.42
2018-02-22T05:05:27.484Z,1013.45
2018-02-22T05:06:27.449Z,1013.42
2018-02-22T05:07:27.413Z,1013.42
2018-02-22T05:08:27.380Z,1013.42
2018-02-22T05:09:27.343Z,1013.39
2018-02-22T05:10:27.307Z,1013.39
2018-02-22T05:11:27.273Z,1013.38
2018-02-22T05:12:27.686Z,1013.41
2018-02-22T05:13:27.204Z,1013.43
2018-02-22T05:14:27.166Z,1013.46
2018-02-22T05:15:27.130Z,1013.47
2018-02-22T05:16:27.093Z,1013.46
2018-02-22T05:17:27.058Z,1013.44
2018-02-22T05:18:27.022Z,1013.43
2018-02-22T05:19:26.986Z,1013.48
2018-02-22T05:20:26.951Z,1013.48
2018-02-22T05:21:26.916Z,1013.47
2018-02-22T05:22:26.880Z,1013.46
2018-02-22T05:23:26.844Z,1013.42
2018-02-22T05:24:26.807Z,1013.45
2018-02-22T05:25:26.773Z,1013.47
2018-02-22T05:26:26.738Z,1013.43
2018-02-22T05:27:26.702Z,1013.47
2018-02-22T05:28:26.666Z,1013.53
2018-02-22T05:29:26.633Z,1013.5
2018-02-22T05:30:26.593Z,1013.46
2018-02-22T05:31:26.558Z,1013.47
2018-02-22T05:32:26.522Z,1013.52
2018-02-22T05:33:26.493Z,1013.5
2018-02-22T05:34:26.451Z,1013.49
2018-02-22T05:35:26.415Z,1013.47
2018-02-22T05:36:26.380Z,1013.52
2018-02-22T05:37:26.345Z,1013.51
2018-02-22T05:38:26.308Z,1013.49
2018-02-22T05:39:26.273Z,1013.5
2018-02-22T05:40:26.238Z,1013.51
2018-02-22T05:41:26.201Z,1013.47
2018-02-22T05:42:26.172Z,1013.51
2018-02-22T05:43:26.130Z,1013.49
2018-02-22T05:44:26.096Z,1013.5
2018-02-22T05:45:26.058Z,1013.5
2018-02-22T05:46:26.027Z,1013.54
2018-02-22T05:47:25.988Z,1013.52
2018-02-22T05:48:25.957Z,1013.52
2018-02-22T05:49:25.916Z,1013.55
2018-02-22T05:50:25.880Z,1013.57
2018-02-22T05:51:25.846Z,1013.57
2018-02-22T05:52:25.808Z,1013.6
2018-02-22T05:53:25.774Z,1013.63
2018-02-22T05:54:25.737Z,1013.58
2018-02-22T05:55:25.701Z,1013.61
2018-02-22T05:56:25.664Z,1013.6
2018-02-22T05:57:25.629Z,1013.62
2018-02-22T05:58:25.594Z,1013.61
2018-02-22T05:59:25.558Z,1013.61
2018-02-22T06:00:25.521Z,1013.65
2018-02-22T06:01:25.485Z,1013.62
2018-02-22T06:02:25.451Z,1013.62
2018-02-22T06:03:25.415Z,1013.61
2018-02-22T06:04:25.378Z,1013.59
2018-02-22T06:05:25.343Z,1013.62
2018-02-22T06:06:25.308Z,1013.65
2018-02-22T06:07:25.271Z,1013.65
2018-02-22T06:08:25.236Z,1013.69
2018-02-22T06:09:25.200Z,1013.65
2018-02-22T06:10:25.165Z,1013.68
2018-02-22T06:11:25.128Z,1013.68
2018-02-22T06:12:25.093Z,1013.66
2018-02-22T06:13:25.164Z,1013.65
2018-02-22T06:14:25.021Z,1013.66
2018-02-22T06:15:24.985Z,1013.69
2018-02-22T06:16:24.950Z,1013.71
2018-02-22T06:17:24.914Z,1013.71
2018-02-22T06:18:24.878Z,1013.72
2018-02-22T06:19:24.842Z,1013.7
2018-02-22T06:20:24.805Z,1013.71
2018-02-22T06:21:24.771Z,1013.7
2018-02-22T06:22:24.734Z,1013.71
2018-02-22T06:23:24.699Z,1013.71
2018-02-22T06:24:24.663Z,1013.71
2018-02-22T06:25:24.627Z,1013.7
2018-02-22T06:26:24.591Z,1013.75
2018-02-22T06:27:24.557Z,1013.77
2018-02-22T06:28:24.522Z,1013.72
2018-02-22T06:29:24.484Z,1013.7
2018-02-22T06:30:24.448Z,1013.69
2018-02-22T06:31:24.411Z,1013.67
2018-02-22T06:32:24.379Z,1013.7
2018-02-22T06:33:24.341Z,1013.69
2018-02-22T06:34:24.305Z,1013.66
2018-02-22T06:35:24.271Z,1013.68
2018-02-22T06:36:24.233Z,1013.7
2018-02-22T06:37:24.201Z,1013.72
2018-02-22T06:38:24.162Z,1013.73
2018-02-22T06:39:24.132Z,1013.72
2018-02-22T06:40:24.090Z,1013.77
2018-02-22T06:41:24.055Z,1013.75
2018-02-22T06:42:24.020Z,1013.77
2018-02-22T06:43:23.984Z,1013.8
2018-02-22T06:44:23.949Z,1013.79
2018-02-22T06:45:23.913Z,1013.81
2018-02-22T06:46:23.878Z,1013.79
2018-02-22T06:47:23.841Z,1013.79
2018-02-22T06:48:23.805Z,1013.83
2018-02-22T06:49:23.771Z,1013.82
2018-02-22T06:50:23.736Z,1013.8
2018-02-22T06:51:23.699Z,1013.84
2018-02-22T06:52:23.707Z,1013.81
2018-02-22T06:53:23.629Z,1013.83
2018-02-22T06:54:23.592Z,1013.83
2018-02-22T06:55:23.556Z,1013.86
2018-02-22T06:56:23.521Z,1013.86
2018-02-22T06:57:23.486Z,1013.83
2018-02-22T06:58:23.456Z,1013.84
2018-02-22T06:59:23.414Z,1013.86
2018-02-22T07:00:23.378Z,1013.82
2018-02-22T07:01:23.343Z,1013.86
2018-02-22T07:02:23.307Z,1013.86
2018-02-22T07:03:23.271Z,1013.89
2018-02-22T07:04:23.236Z,1013.88
2018-02-22T07:05:23.200Z,1013.88
2018-02-22T07:06:23.164Z,1013.94
2018-02-22T07:07:23.294Z,1013.89
2018-02-22T07:08:23.187Z,1013.92
2018-02-22T07:09:23.294Z,1013.93
2018-02-22T07:10:23.023Z,1013.93
2018-02-22T07:11:22.989Z,1013.94
2018-02-22T07:12:22.953Z,1013.93
2018-02-22T07:13:22.921Z,1013.9
2018-02-22T07:14:22.880Z,1013.9
2018-02-22T07:15:22.846Z,1013.85
2018-02-22T07:16:22.810Z,1013.93
2018-02-22T07:17:22.775Z,1013.92
2018-02-22T07:18:22.740Z,1013.9
2018-02-22T07:19:22.704Z,1013.91
2018-02-22T07:20:22.669Z,1013.89
2018-02-22T07:21:22.634Z,1013.92
2018-02-22T07:22:22.599Z,1013.89
2018-02-22T07:23:22.587Z,1013.92
2018-02-22T07:24:22.527Z,1013.95
2018-02-22T07:25:22.504Z,1013.87
2018-02-22T07:26:22.458Z,1013.91
2018-02-22T07:27:22.533Z,1013.91
2018-02-22T07:28:22.672Z,1013.93
2018-02-22T07:29:22.405Z,1013.96
2018-02-22T07:30:22.402Z,1013.93
2018-02-22T07:31:22.384Z,1013.93
2018-02-22T07:32:22.574Z,1013.95
2018-02-22T07:33:22.212Z,1013.95
2018-02-22T07:34:22.177Z,1013.94
2018-02-22T07:35:22.141Z,1013.95
2018-02-22T07:36:22.112Z,1013.97
2018-02-22T07:37:22.072Z,1013.93
2018-02-22T07:38:22.139Z,1013.93
2018-02-22T07:39:22.092Z,1013.97
2018-02-22T07:40:21.967Z,1013.97
2018-02-22T07:41:21.932Z,1013.99
2018-02-22T07:42:21.897Z,1013.99
2018-02-22T07:43:21.862Z,1013.99
2018-02-22T07:44:21.827Z,1013.99
2018-02-22T07:45:21.891Z,1013.99
2018-02-22T07:46:21.842Z,1014.02
2018-02-22T07:47:21.723Z,1014
2018-02-22T07:48:21.688Z,1014.01
2018-02-22T07:49:21.651Z,1014.07
2018-02-22T07:50:21.619Z,1014.09
2018-02-22T07:51:21.584Z,1014.06
2018-02-22T07:52:21.594Z,1014.05
2018-02-22T07:53:21.514Z,1014.08
2018-02-22T07:54:21.479Z,1014.06
2018-02-22T07:55:21.444Z,1014.07
2018-02-22T07:56:21.411Z,1014.11
2018-02-22T07:57:21.375Z,1014.08
2018-02-22T07:58:21.341Z,1014.08
2018-02-22T07:59:21.309Z,1014.12
2018-02-22T08:00:21.556Z,1014.11
2018-02-22T08:01:21.237Z,1014.14
2018-02-22T08:02:21.203Z,1014.1
2018-02-22T08:03:21.169Z,1014.14
2018-02-22T08:04:21.134Z,1014.1
2018-02-22T08:05:21.099Z,1014.16
2018-02-22T08:06:21.069Z,1014.12
2018-02-22T08:07:21.031Z,1014.13
2018-02-22T08:08:20.996Z,1014.16
2018-02-22T08:09:20.962Z,1014.13
2018-02-22T08:10:20.929Z,1014.11
2018-02-22T08:11:20.892Z,1014.12
2018-02-22T08:12:20.859Z,1014.13
2018-02-22T08:13:20.825Z,1014.11
2018-02-22T08:14:20.790Z,1014.1
2018-02-22T08:15:20.816Z,1014.12
2018-02-22T08:16:20.722Z,1014.1
2018-02-22T08:17:20.694Z,1014.08
2018-02-22T08:18:20.681Z,1014.07
2018-02-22T08:19:20.928Z,1014.06
2018-02-22T08:20:20.586Z,1014.08
2018-02-22T08:21:20.594Z,1014.08
2018-02-22T08:22:20.516Z,1014.09
2018-02-22T08:23:20.546Z,1014.04
2018-02-22T08:24:20.450Z,1014.05
2018-02-22T08:25:20.416Z,1014.01
2018-02-22T08:26:20.380Z,1014.01
2018-02-22T08:27:20.350Z,1014.05
2018-02-22T08:28:20.314Z,1014.05
2018-02-22T08:29:20.280Z,1014.11
2018-02-22T08:30:20.245Z,1014.07
2018-02-22T08:31:20.212Z,1014.1
2018-02-22T08:32:20.178Z,1014.13
2018-02-22T08:33:20.144Z,1014.09
2018-02-22T08:34:20.393Z,1014.07
2018-02-22T08:35:20.389Z,1014.05
2018-02-22T08:36:20.386Z,1014.03
2018-02-22T08:37:20.316Z,1014.01
2018-02-22T08:38:20.244Z,1014.01
2018-02-22T08:39:19.944Z,1014
2018-02-22T08:40:19.907Z,1013.98
2018-02-22T08:41:19.873Z,1013.96
2018-02-22T08:42:19.841Z,1013.95
2018-02-22T08:43:19.859Z,1013.95
2018-02-22T08:44:20.210Z,1013.95
2018-02-22T08:45:19.740Z,1013.92
2018-02-22T08:46:19.708Z,1013.92
2018-02-22T08:47:19.673Z,1013.93
2018-02-22T08:48:19.639Z,1013.96
2018-02-22T08:49:19.606Z,1013.93
2018-02-22T08:50:19.572Z,1013.89
2018-02-22T08:51:19.537Z,1013.92
2018-02-22T08:52:19.505Z,1014.02
2018-02-22T08:53:19.472Z,1013.98
2018-02-22T08:54:19.442Z,1013.98
2018-02-22T08:55:19.404Z,1014
2018-02-22T08:56:19.480Z,1013.98
2018-02-22T08:57:19.510Z,1014.01
2018-02-22T08:58:19.306Z,1014.01
2018-02-22T08:59:19.272Z,1013.96
2018-02-22T09:00:19.240Z,1013.96
2018-02-22T09:01:19.205Z,1013.98
2018-02-22T09:02:19.172Z,1013.98
2018-02-22T09:03:19.139Z,1013.99
2018-02-22T09:04:19.106Z,1014.01
2018-02-22T09:05:19.074Z,1013.99
2018-02-22T09:06:19.040Z,1013.99
2018-02-22T09:07:19.006Z,1013.93
2018-02-22T09:08:18.974Z,1013.92
2018-02-22T09:09:18.940Z,1013.94
2018-02-22T09:10:18.907Z,1013.91
2018-02-22T09:11:18.877Z,1013.84
2018-02-22T09:12:19.128Z,1013.91
2018-02-22T09:13:19.323Z,1013.84
2018-02-22T09:14:18.927Z,1013.86
2018-02-22T09:15:19.025Z,1013.87
2018-02-22T09:16:18.836Z,1013.88
2018-02-22T09:17:18.675Z,1013.91
2018-02-22T09:18:18.858Z,1013.89
2018-02-22T09:19:18.611Z,1013.87
2018-02-22T09:20:18.578Z,1013.84
2018-02-22T09:21:18.545Z,1013.76
2018-02-22T09:22:18.512Z,1013.82
2018-02-22T09:23:18.479Z,1013.84
2018-02-22T09:24:18.444Z,1013.79
2018-02-22T09:25:18.413Z,1013.8
2018-02-22T09:26:18.382Z,1013.81
2018-02-22T09:27:18.348Z,1013.77
2018-02-22T09:28:18.316Z,1013.81
2018-02-22T09:29:18.283Z,1013.81
2018-02-22T09:30:18.252Z,1013.76
2018-02-22T09:31:18.224Z,1013.73
2018-02-22T09:32:18.185Z,1013.78
2018-02-22T09:33:18.154Z,1013.77
2018-02-22T09:34:18.121Z,1013.79
2018-02-22T09:35:18.090Z,1013.83
2018-02-22T09:36:18.056Z,1013.84
2018-02-22T09:37:18.023Z,1013.9
2018-02-22T09:38:18.029Z,1013.84
2018-02-22T09:39:17.958Z,1013.83
2018-02-22T09:40:17.926Z,1013.8
2018-02-22T09:41:17.894Z,1013.81
2018-02-22T09:42:17.861Z,1013.83
2018-02-22T09:43:17.829Z,1013.78
2018-02-22T09:44:17.798Z,1013.8
2018-02-22T09:45:17.765Z,1013.81
2018-02-22T09:46:17.739Z,1013.8
2018-02-22T09:47:18.135Z,1013.83
2018-02-22T09:48:17.791Z,1013.84
2018-02-22T09:49:17.636Z,1013.78
2018-02-22T09:50:17.632Z,1013.77
2018-02-22T09:51:17.573Z,1013.74
2018-02-22T09:52:17.540Z,1013.74
2018-02-22T09:53:17.510Z,1013.75
2018-02-22T09:54:17.648Z,1013.76
2018-02-22T09:55:17.447Z,1013.8
2018-02-22T09:56:17.415Z,1013.77
2018-02-22T09:57:17.382Z,1013.74
2018-02-22T09:58:17.355Z,1013.75
2018-02-22T09:59:17.335Z,1013.72
2018-02-22T10:00:17.288Z,1013.72
2018-02-22T10:01:17.256Z,1013.73
2018-02-22T10:02:17.226Z,1013.71
2018-02-22T10:03:17.192Z,1013.75
2018-02-22T10:04:17.160Z,1013.73
2018-02-22T10:05:17.129Z,1013.79
2018-02-22T10:06:17.108Z,1013.77
2018-02-22T10:07:17.066Z,1013.76
2018-02-22T10:08:17.035Z,1013.77
2018-02-22T10:09:17.003Z,1013.79
2018-02-22T10:10:16.973Z,1013.71
2018-02-22T10:11:16.941Z,1013.75
2018-02-22T10:12:16.914Z,1013.7
2018-02-22T10:13:16.877Z,1013.71
2018-02-22T10:14:16.847Z,1013.72
2018-02-22T10:15:16.814Z,1013.67
2018-02-22T10:16:16.784Z,1013.67
2018-02-22T10:17:16.751Z,1013.74
2018-02-22T10:18:16.984Z,1013.62
2018-02-22T10:19:16.691Z,1013.64
2018-02-22T10:20:16.658Z,1013.6
2018-02-22T10:21:16.627Z,1013.62
2018-02-22T10:22:16.596Z,1013.64
2018-02-22T10:23:16.563Z,1013.6
2018-02-22T10:24:16.532Z,1013.58
2018-02-22T10:25:16.502Z,1013.61
2018-02-22T10:26:16.480Z,1013.62
2018-02-22T10:27:16.509Z,1013.6
2018-02-22T10:28:16.508Z,1013.66
2018-02-22T10:29:16.377Z,1013.55
2018-02-22T10:30:16.349Z,1013.59
2018-02-22T10:31:16.315Z,1013.6
2018-02-22T10:32:16.286Z,1013.63
2018-02-22T10:33:16.676Z,1013.59
2018-02-22T10:34:16.519Z,1013.69
2018-02-22T10:35:16.190Z,1013.57
2018-02-22T10:36:16.160Z,1013.59
2018-02-22T10:37:16.155Z,1013.65
2018-02-22T10:38:16.096Z,1013.56
2018-02-22T10:39:16.077Z,1013.67
2018-02-22T10:40:16.035Z,1013.51
2018-02-22T10:41:16.004Z,1013.56
2018-02-22T10:42:15.973Z,1013.47
2018-02-22T10:43:15.942Z,1013.57
2018-02-22T10:44:15.911Z,1013.47
2018-02-22T10:45:15.879Z,1013.42
2018-02-22T10:46:15.849Z,1013.5
2018-02-22T10:47:15.818Z,1013.35
2018-02-22T10:48:15.787Z,1013.42
2018-02-22T10:49:15.770Z,1013.53
2018-02-22T10:50:15.724Z,1013.55
2018-02-22T10:51:15.695Z,1013.46
2018-02-22T10:52:15.662Z,1013.53
2018-02-22T10:53:15.632Z,1013.54
2018-02-22T10:54:15.602Z,1013.52
2018-02-22T10:55:15.571Z,1013.48
2018-02-22T10:56:15.540Z,1013.47
2018-02-22T10:57:15.509Z,1013.47
2018-02-22T10:58:15.478Z,1013.33
2018-02-22T10:59:15.447Z,1013.37
2018-02-22T11:00:15.416Z,1013.26
2018-02-22T11:01:15.385Z,1013.39
2018-02-22T11:02:15.357Z,1013.38
2018-02-22T11:03:15.324Z,1013.43
2018-02-22T11:04:15.292Z,1013.38
2018-02-22T11:05:15.263Z,1013.39
2018-02-22T11:06:15.232Z,1013.37
2018-02-22T11:07:15.201Z,1013.32
2018-02-22T11:08:15.171Z,1013.36
2018-02-22T11:09:15.140Z,1013.36
2018-02-22T11:10:15.109Z,1013.32
2018-02-22T11:11:15.079Z,1013.28
2018-02-22T11:12:15.049Z,1013.29
2018-02-22T11:13:15.019Z,1013.34
2018-02-22T11:14:14.987Z,1013.24
2018-02-22T11:15:14.958Z,1013.32
2018-02-22T11:16:14.927Z,1013.29
2018-02-22T11:17:14.898Z,1013.31
2018-02-22T11:18:14.867Z,1013.37
2018-02-22T11:19:14.836Z,1013.31
2018-02-22T11:20:14.807Z,1013.36
2018-02-22T11:21:14.776Z,1013.36
2018-02-22T11:22:14.745Z,1013.38
2018-02-22T11:23:14.715Z,1013.34
2018-02-22T11:24:14.686Z,1013.4
2018-02-22T11:25:14.655Z,1013.36
2018-02-22T11:26:14.625Z,1013.33
2018-02-22T11:27:14.602Z,1013.31
2018-02-22T11:28:14.565Z,1013.3
2018-02-22T11:29:14.536Z,1013.35
2018-02-22T11:30:14.506Z,1013.29
2018-02-22T11:31:14.477Z,1013.3
2018-02-22T11:32:14.445Z,1013.24
2018-02-22T11:33:14.418Z,1013.22
2018-02-22T11:34:14.386Z,1013.2
2018-02-22T11:35:14.355Z,1013.21
2018-02-22T11:36:14.327Z,1013.3
2018-02-22T11:37:14.296Z,1013.21
2018-02-22T11:38:14.266Z,1013.18
2018-02-22T11:39:14.238Z,1013.18
2018-02-22T11:40:14.207Z,1013
2018-02-22T11:41:14.177Z,1013.15
2018-02-22T11:42:14.147Z,1013.02
2018-02-22T11:43:14.117Z,1013.08
2018-02-22T11:44:14.087Z,1013.1
2018-02-22T11:45:14.058Z,1013.1
2018-02-22T11:46:14.029Z,1013.09
2018-02-22T11:47:13.998Z,1013.07
2018-02-22T11:48:13.968Z,1013.23
2018-02-22T11:49:13.938Z,1013.09
2018-02-22T11:50:13.913Z,1013.15
2018-02-22T11:51:13.879Z,1013.02
2018-02-22T11:52:13.848Z,1013.06
2018-02-22T11:53:13.820Z,1013.03
2018-02-22T11:54:13.790Z,1013.04
2018-02-22T11:55:13.760Z,1012.98
2018-02-22T11:56:13.731Z,1013.08
2018-02-22T11:57:13.702Z,1013.03
2018-02-22T11:58:13.675Z,1013.02
2018-02-22T11:59:13.642Z,1013.05
2018-02-22T12:00:13.613Z,1013.04
2018-02-22T12:01:13.582Z,1012.97
2018-02-22T12:02:13.554Z,1012.98
2018-02-22T12:03:13.524Z,1013
2018-02-22T12:04:13.494Z,1012.9
2018-02-22T12:05:13.463Z,1012.92
2018-02-22T12:06:13.435Z,1012.9
2018-02-22T12:07:13.406Z,1012.97
2018-02-22T12:08:13.376Z,1012.95